sensor_id;sensor_type;location;lat;lon;timestamp;P1;durP1;ratioP1;P2;durP2;ratioP2
1987;SDS011;12775;46.994;15.498;2023-04-28T00:01:43;5.22;;;3.88;;
1987;SDS011;12775;46.994;15.498;2023-04-28T00:04:11;10.70;;;3.98;;
1987;SDS011;12775;46.994;15.498;2023-04-28T00:06:38;4.96;;;4.40;;
1987;SDS011;12775;46.994;15.498;2023-04-28T00:09:06;4.20;;;3.86;;
1987;SDS011;12775;46.994;15.498;2023-04-28T00:11:33;4.98;;;3.92;;
1987;SDS011;12775;46.994;15.498;2023-04-28T00:14:01;4.70;;;3.80;;
1987;SDS011;12775;46.994;15.498;2023-04-28T00:16:28;4.12;;;3.80;;
1987;SDS011;12775;46.994;15.498;2023-04-28T00:18:56;5.90;;;4.66;;
1987;SDS011;12775;46.994;15.498;2023-04-28T00:21:23;6.60;;;4.82;;
1987;SDS011;12775;46.994;15.498;2023-04-28T00:23:50;4.48;;;3.88;;
1987;SDS011;12775;46.994;15.498;2023-04-28T00:26:18;4.58;;;4.16;;
1987;SDS011;12775;46.994;15.498;2023-04-28T00:28:45;4.58;;;4.18;;
1987;SDS011;12775;46.994;15.498;2023-04-28T00:31:13;5.04;;;4.60;;
1987;SDS011;12775;46.994;15.498;2023-04-28T00:33:40;4.32;;;3.96;;
1987;SDS011;12775;46.994;15.498;2023-04-28T00:36:08;4.54;;;3.92;;
1987;SDS011;12775;46.994;15.498;2023-04-28T00:38:35;5.24;;;4.78;;
1987;SDS011;12775;46.994;15.498;2023-04-28T00:41:03;5.10;;;4.34;;
1987;SDS011;12775;46.994;15.498;2023-04-28T00:43:30;4.62;;;4.12;;
1987;SDS011;12775;46.994;15.498;2023-04-28T00:45:57;5.00;;;4.60;;
1987;SDS011;12775;46.994;15.498;2023-04-28T00:48:25;8.00;;;4.82;;
1987;SDS011;12775;46.994;15.498;2023-04-28T00:50:52;4.44;;;4.02;;
1987;SDS011;12775;46.994;15.498;2023-04-28T00:53:19;5.62;;;5.02;;
1987;SDS011;12775;46.994;15.498;2023-04-28T00:55:48;6.10;;;5.50;;
1987;SDS011;12775;46.994;15.498;2023-04-28T00:58:15;4.88;;;4.48;;
1987;SDS011;12775;46.994;15.498;2023-04-28T01:00:42;5.28;;;3.78;;
1987;SDS011;12775;46.994;15.498;2023-04-28T01:03:10;4.60;;;4.16;;
1987;SDS011;12775;46.994;15.498;2023-04-28T01:05:38;8.28;;;4.42;;
1987;SDS011;12775;46.994;15.498;2023-04-28T01:08:06;9.44;;;4.64;;
1987;SDS011;12775;46.994;15.498;2023-04-28T01:10:34;6.00;;;4.24;;
1987;SDS011;12775;46.994;15.498;2023-04-28T01:13:01;5.82;;;4.50;;
1987;SDS011;12775;46.994;15.498;2023-04-28T01:15:29;7.00;;;4.28;;
1987;SDS011;12775;46.994;15.498;2023-04-28T01:17:57;6.04;;;4.04;;
1987;SDS011;12775;46.994;15.498;2023-04-28T01:20:24;5.10;;;4.70;;
1987;SDS011;12775;46.994;15.498;2023-04-28T01:22:52;6.24;;;3.82;;
1987;SDS011;12775;46.994;15.498;2023-04-28T01:25:19;4.58;;;4.06;;
1987;SDS011;12775;46.994;15.498;2023-04-28T01:27:46;6.32;;;3.68;;
1987;SDS011;12775;46.994;15.498;2023-04-28T01:30:14;8.02;;;5.32;;
1987;SDS011;12775;46.994;15.498;2023-04-28T01:32:41;9.62;;;4.16;;
1987;SDS011;12775;46.994;15.498;2023-04-28T01:35:08;5.84;;;4.50;;
1987;SDS011;12775;46.994;15.498;2023-04-28T01:37:36;8.18;;;4.58;;
1987;SDS011;12775;46.994;15.498;2023-04-28T01:40:03;4.56;;;4.16;;
1987;SDS011;12775;46.994;15.498;2023-04-28T01:42:31;5.80;;;4.26;;
1987;SDS011;12775;46.994;15.498;2023-04-28T01:44:59;5.18;;;4.72;;
1987;SDS011;12775;46.994;15.498;2023-04-28T01:47:26;6.36;;;5.48;;
1987;SDS011;12775;46.994;15.498;2023-04-28T01:49:54;5.34;;;4.88;;
1987;SDS011;12775;46.994;15.498;2023-04-28T01:52:21;5.60;;;4.64;;
1987;SDS011;12775;46.994;15.498;2023-04-28T01:54:49;9.64;;;4.94;;
1987;SDS011;12775;46.994;15.498;2023-04-28T01:57:15;6.48;;;4.48;;
1987;SDS011;12775;46.994;15.498;2023-04-28T01:59:42;4.36;;;3.94;;
1987;SDS011;12775;46.994;15.498;2023-04-28T02:02:10;5.06;;;4.62;;
1987;SDS011;12775;46.994;15.498;2023-04-28T02:04:38;8.70;;;3.98;;
1987;SDS011;12775;46.994;15.498;2023-04-28T02:07:05;5.32;;;4.48;;
1987;SDS011;12775;46.994;15.498;2023-04-28T02:09:32;4.18;;;3.88;;
1987;SDS011;12775;46.994;15.498;2023-04-28T02:12:00;5.30;;;4.80;;
1987;SDS011;12775;46.994;15.498;2023-04-28T02:14:28;5.34;;;4.12;;
1987;SDS011;12775;46.994;15.498;2023-04-28T02:16:55;4.86;;;4.46;;
1987;SDS011;12775;46.994;15.498;2023-04-28T02:19:23;4.82;;;4.42;;
1987;SDS011;12775;46.994;15.498;2023-04-28T02:21:51;6.04;;;4.44;;
1987;SDS011;12775;46.994;15.498;2023-04-28T02:24:18;4.46;;;4.16;;
1987;SDS011;12775;46.994;15.498;2023-04-28T02:26:45;4.80;;;4.30;;
1987;SDS011;12775;46.994;15.498;2023-04-28T02:29:12;7.70;;;4.68;;
1987;SDS011;12775;46.994;15.498;2023-04-28T02:31:39;8.94;;;5.32;;
1987;SDS011;12775;46.994;15.498;2023-04-28T02:34:07;13.58;;;6.98;;
1987;SDS011;12775;46.994;15.498;2023-04-28T02:36:34;5.84;;;5.16;;
1987;SDS011;12775;46.994;15.498;2023-04-28T02:39:01;7.20;;;5.30;;
1987;SDS011;12775;46.994;15.498;2023-04-28T02:41:29;7.42;;;5.52;;
1987;SDS011;12775;46.994;15.498;2023-04-28T02:43:56;5.22;;;4.72;;
1987;SDS011;12775;46.994;15.498;2023-04-28T02:46:24;6.42;;;5.80;;
1987;SDS011;12775;46.994;15.498;2023-04-28T02:48:51;6.26;;;5.66;;
1987;SDS011;12775;46.994;15.498;2023-04-28T02:51:18;8.54;;;5.68;;
1987;SDS011;12775;46.994;15.498;2023-04-28T02:53:46;10.02;;;5.76;;
1987;SDS011;12775;46.994;15.498;2023-04-28T02:56:13;5.36;;;4.92;;
1987;SDS011;12775;46.994;15.498;2023-04-28T02:58:41;7.92;;;5.42;;
1987;SDS011;12775;46.994;15.498;2023-04-28T03:01:08;6.48;;;5.58;;
1987;SDS011;12775;46.994;15.498;2023-04-28T03:03:35;7.18;;;5.56;;
1987;SDS011;12775;46.994;15.498;2023-04-28T03:06:03;7.10;;;5.86;;
1987;SDS011;12775;46.994;15.498;2023-04-28T03:08:31;6.80;;;5.18;;
1987;SDS011;12775;46.994;15.498;2023-04-28T03:10:58;6.62;;;6.04;;
1987;SDS011;12775;46.994;15.498;2023-04-28T03:13:25;7.18;;;5.78;;
1987;SDS011;12775;46.994;15.498;2023-04-28T03:15:54;5.64;;;4.98;;
1987;SDS011;12775;46.994;15.498;2023-04-28T03:18:21;13.32;;;5.90;;
1987;SDS011;12775;46.994;15.498;2023-04-28T03:20:49;5.88;;;5.28;;
1987;SDS011;12775;46.994;15.498;2023-04-28T03:23:16;6.32;;;5.32;;
1987;SDS011;12775;46.994;15.498;2023-04-28T03:25:43;8.38;;;5.74;;
1987;SDS011;12775;46.994;15.498;2023-04-28T03:28:11;9.40;;;6.78;;
1987;SDS011;12775;46.994;15.498;2023-04-28T03:30:38;7.68;;;5.86;;
1987;SDS011;12775;46.994;15.498;2023-04-28T03:33:06;9.14;;;6.54;;
1987;SDS011;12775;46.994;15.498;2023-04-28T03:35:33;9.34;;;6.90;;
1987;SDS011;12775;46.994;15.498;2023-04-28T03:38:00;10.66;;;7.62;;
1987;SDS011;12775;46.994;15.498;2023-04-28T03:40:28;8.00;;;6.20;;
1987;SDS011;12775;46.994;15.498;2023-04-28T03:42:55;7.34;;;6.66;;
1987;SDS011;12775;46.994;15.498;2023-04-28T03:45:22;8.18;;;6.78;;
1987;SDS011;12775;46.994;15.498;2023-04-28T03:47:50;6.40;;;5.80;;
1987;SDS011;12775;46.994;15.498;2023-04-28T03:50:17;10.08;;;6.12;;
1987;SDS011;12775;46.994;15.498;2023-04-28T03:52:44;5.82;;;5.32;;
1987;SDS011;12775;46.994;15.498;2023-04-28T03:55:12;5.88;;;5.38;;
1987;SDS011;12775;46.994;15.498;2023-04-28T03:57:39;7.02;;;5.76;;
1987;SDS011;12775;46.994;15.498;2023-04-28T04:00:08;7.60;;;5.76;;
1987;SDS011;12775;46.994;15.498;2023-04-28T04:02:35;8.96;;;4.96;;
1987;SDS011;12775;46.994;15.498;2023-04-28T04:05:02;5.78;;;5.20;;
1987;SDS011;12775;46.994;15.498;2023-04-28T04:07:29;6.02;;;5.52;;
1987;SDS011;12775;46.994;15.498;2023-04-28T04:09:56;6.82;;;6.22;;
1987;SDS011;12775;46.994;15.498;2023-04-28T04:12:24;5.68;;;5.14;;
1987;SDS011;12775;46.994;15.498;2023-04-28T04:14:52;17.48;;;7.26;;
1987;SDS011;12775;46.994;15.498;2023-04-28T04:17:19;8.48;;;6.44;;
1987;SDS011;12775;46.994;15.498;2023-04-28T04:19:48;12.52;;;6.70;;
1987;SDS011;12775;46.994;15.498;2023-04-28T04:22:15;18.44;;;8.88;;
1987;SDS011;12775;46.994;15.498;2023-04-28T04:24:42;31.42;;;8.84;;
1987;SDS011;12775;46.994;15.498;2023-04-28T04:27:10;15.30;;;7.32;;
1987;SDS011;12775;46.994;15.498;2023-04-28T04:29:37;8.00;;;5.68;;
1987;SDS011;12775;46.994;15.498;2023-04-28T04:32:04;9.98;;;6.60;;
1987;SDS011;12775;46.994;15.498;2023-04-28T04:34:32;13.86;;;6.82;;
1987;SDS011;12775;46.994;15.498;2023-04-28T04:36:59;9.88;;;8.02;;
1987;SDS011;12775;46.994;15.498;2023-04-28T04:39:27;12.98;;;8.32;;
1987;SDS011;12775;46.994;15.498;2023-04-28T04:41:55;10.94;;;6.50;;
1987;SDS011;12775;46.994;15.498;2023-04-28T04:44:22;9.88;;;6.72;;
1987;SDS011;12775;46.994;15.498;2023-04-28T04:46:49;9.80;;;6.80;;
1987;SDS011;12775;46.994;15.498;2023-04-28T04:49:16;13.20;;;7.32;;
1987;SDS011;12775;46.994;15.498;2023-04-28T04:51:44;7.94;;;7.10;;
1987;SDS011;12775;46.994;15.498;2023-04-28T04:54:12;10.16;;;7.64;;
1987;SDS011;12775;46.994;15.498;2023-04-28T04:56:39;20.42;;;8.64;;
1987;SDS011;12775;46.994;15.498;2023-04-28T04:59:08;8.94;;;6.72;;
1987;SDS011;12775;46.994;15.498;2023-04-28T05:01:35;7.60;;;6.90;;
1987;SDS011;12775;46.994;15.498;2023-04-28T05:04:02;11.90;;;7.22;;
1987;SDS011;12775;46.994;15.498;2023-04-28T05:06:30;12.94;;;8.86;;
1987;SDS011;12775;46.994;15.498;2023-04-28T05:08:58;17.68;;;8.02;;
1987;SDS011;12775;46.994;15.498;2023-04-28T05:11:26;10.28;;;7.66;;
1987;SDS011;12775;46.994;15.498;2023-04-28T05:13:53;12.70;;;8.22;;
1987;SDS011;12775;46.994;15.498;2023-04-28T05:16:21;9.58;;;7.22;;
1987;SDS011;12775;46.994;15.498;2023-04-28T05:18:49;10.30;;;7.28;;
1987;SDS011;12775;46.994;15.498;2023-04-28T05:21:16;10.52;;;7.88;;
1987;SDS011;12775;46.994;15.498;2023-04-28T05:23:43;9.34;;;6.90;;
1987;SDS011;12775;46.994;15.498;2023-04-28T05:26:11;9.80;;;7.54;;
1987;SDS011;12775;46.994;15.498;2023-04-28T05:28:39;8.02;;;7.20;;
1987;SDS011;12775;46.994;15.498;2023-04-28T05:31:06;12.54;;;9.60;;
1987;SDS011;12775;46.994;15.498;2023-04-28T05:33:35;10.14;;;8.52;;
1987;SDS011;12775;46.994;15.498;2023-04-28T05:36:02;12.78;;;8.06;;
1987;SDS011;12775;46.994;15.498;2023-04-28T05:38:30;10.02;;;7.68;;
1987;SDS011;12775;46.994;15.498;2023-04-28T05:40:57;8.92;;;8.02;;
1987;SDS011;12775;46.994;15.498;2023-04-28T05:43:24;17.20;;;8.78;;
1987;SDS011;12775;46.994;15.498;2023-04-28T05:45:52;9.82;;;7.82;;
1987;SDS011;12775;46.994;15.498;2023-04-28T05:48:19;9.12;;;8.22;;
1987;SDS011;12775;46.994;15.498;2023-04-28T05:50:46;9.50;;;8.16;;
1987;SDS011;12775;46.994;15.498;2023-04-28T05:53:14;8.94;;;7.18;;
1987;SDS011;12775;46.994;15.498;2023-04-28T05:55:43;8.90;;;7.54;;
1987;SDS011;12775;46.994;15.498;2023-04-28T05:58:09;10.02;;;7.30;;
1987;SDS011;12775;46.994;15.498;2023-04-28T06:00:36;8.62;;;7.72;;
1987;SDS011;12775;46.994;15.498;2023-04-28T06:03:03;16.00;;;8.68;;
1987;SDS011;12775;46.994;15.498;2023-04-28T06:05:32;8.76;;;7.88;;
1987;SDS011;12775;46.994;15.498;2023-04-28T06:07:58;14.22;;;8.96;;
1987;SDS011;12775;46.994;15.498;2023-04-28T06:10:26;11.38;;;7.42;;
1987;SDS011;12775;46.994;15.498;2023-04-28T06:12:54;10.52;;;8.18;;
1987;SDS011;12775;46.994;15.498;2023-04-28T06:15:21;12.52;;;7.90;;
1987;SDS011;12775;46.994;15.498;2023-04-28T06:17:49;11.84;;;7.20;;
1987;SDS011;12775;46.994;15.498;2023-04-28T06:20:16;12.04;;;8.08;;
1987;SDS011;12775;46.994;15.498;2023-04-28T06:22:43;8.88;;;8.06;;
1987;SDS011;12775;46.994;15.498;2023-04-28T06:25:11;8.16;;;7.34;;
1987;SDS011;12775;46.994;15.498;2023-04-28T06:27:38;12.54;;;8.32;;
1987;SDS011;12775;46.994;15.498;2023-04-28T06:30:06;8.70;;;7.88;;
1987;SDS011;12775;46.994;15.498;2023-04-28T06:32:34;8.22;;;7.46;;
1987;SDS011;12775;46.994;15.498;2023-04-28T06:35:01;11.98;;;7.88;;
1987;SDS011;12775;46.994;15.498;2023-04-28T06:37:29;10.74;;;7.82;;
1987;SDS011;12775;46.994;15.498;2023-04-28T06:39:56;8.62;;;6.86;;
1987;SDS011;12775;46.994;15.498;2023-04-28T06:42:23;7.94;;;7.02;;
1987;SDS011;12775;46.994;15.498;2023-04-28T06:44:52;8.10;;;6.74;;
1987;SDS011;12775;46.994;15.498;2023-04-28T06:47:19;10.28;;;8.02;;
1987;SDS011;12775;46.994;15.498;2023-04-28T06:49:46;9.90;;;7.36;;
1987;SDS011;12775;46.994;15.498;2023-04-28T06:52:13;10.36;;;9.22;;
1987;SDS011;12775;46.994;15.498;2023-04-28T06:54:40;7.38;;;6.78;;
1987;SDS011;12775;46.994;15.498;2023-04-28T06:57:08;8.36;;;7.56;;
1987;SDS011;12775;46.994;15.498;2023-04-28T06:59:35;15.04;;;8.74;;
1987;SDS011;12775;46.994;15.498;2023-04-28T07:02:02;11.12;;;7.76;;
1987;SDS011;12775;46.994;15.498;2023-04-28T07:04:29;8.88;;;7.00;;
1987;SDS011;12775;46.994;15.498;2023-04-28T07:06:57;8.70;;;7.36;;
1987;SDS011;12775;46.994;15.498;2023-04-28T07:09:25;8.28;;;7.22;;
1987;SDS011;12775;46.994;15.498;2023-04-28T07:11:52;11.70;;;8.06;;
1987;SDS011;12775;46.994;15.498;2023-04-28T07:14:20;8.74;;;7.98;;
1987;SDS011;12775;46.994;15.498;2023-04-28T07:16:47;8.00;;;7.20;;
1987;SDS011;12775;46.994;15.498;2023-04-28T07:19:14;10.42;;;7.82;;
1987;SDS011;12775;46.994;15.498;2023-04-28T07:21:42;7.84;;;7.14;;
1987;SDS011;12775;46.994;15.498;2023-04-28T07:24:09;8.58;;;7.68;;
1987;SDS011;12775;46.994;15.498;2023-04-28T07:26:36;11.00;;;8.26;;
1987;SDS011;12775;46.994;15.498;2023-04-28T07:29:04;11.20;;;7.32;;
1987;SDS011;12775;46.994;15.498;2023-04-28T07:31:31;10.56;;;7.54;;
1987;SDS011;12775;46.994;15.498;2023-04-28T07:33:59;8.36;;;6.38;;
1987;SDS011;12775;46.994;15.498;2023-04-28T07:36:26;6.40;;;5.80;;
1987;SDS011;12775;46.994;15.498;2023-04-28T07:38:53;9.36;;;5.98;;
1987;SDS011;12775;46.994;15.498;2023-04-28T07:41:21;11.94;;;6.42;;
1987;SDS011;12775;46.994;15.498;2023-04-28T07:43:48;5.28;;;4.22;;
1987;SDS011;12775;46.994;15.498;2023-04-28T07:46:15;7.64;;;6.56;;
1987;SDS011;12775;46.994;15.498;2023-04-28T07:48:42;6.20;;;5.32;;
1987;SDS011;12775;46.994;15.498;2023-04-28T07:51:09;5.66;;;5.12;;
1987;SDS011;12775;46.994;15.498;2023-04-28T07:53:37;8.16;;;6.00;;
1987;SDS011;12775;46.994;15.498;2023-04-28T07:56:04;7.00;;;6.22;;
1987;SDS011;12775;46.994;15.498;2023-04-28T07:58:32;6.52;;;5.40;;
1987;SDS011;12775;46.994;15.498;2023-04-28T08:00:59;7.18;;;5.92;;
1987;SDS011;12775;46.994;15.498;2023-04-28T08:03:26;9.64;;;6.60;;
1987;SDS011;12775;46.994;15.498;2023-04-28T08:05:54;7.90;;;5.42;;
1987;SDS011;12775;46.994;15.498;2023-04-28T08:08:21;11.50;;;6.44;;
1987;SDS011;12775;46.994;15.498;2023-04-28T08:10:49;7.16;;;6.46;;
1987;SDS011;12775;46.994;15.498;2023-04-28T08:13:16;7.20;;;6.48;;
1987;SDS011;12775;46.994;15.498;2023-04-28T08:15:44;9.12;;;6.80;;
1987;SDS011;12775;46.994;15.498;2023-04-28T08:18:11;7.90;;;7.10;;
1987;SDS011;12775;46.994;15.498;2023-04-28T08:20:38;6.46;;;5.86;;
1987;SDS011;12775;46.994;15.498;2023-04-28T08:23:06;10.80;;;7.28;;
1987;SDS011;12775;46.994;15.498;2023-04-28T08:25:33;12.78;;;6.84;;
1987;SDS011;12775;46.994;15.498;2023-04-28T08:28:01;14.04;;;7.98;;
1987;SDS011;12775;46.994;15.498;2023-04-28T08:30:28;7.74;;;6.88;;
1987;SDS011;12775;46.994;15.498;2023-04-28T08:32:55;8.10;;;6.42;;
1987;SDS011;12775;46.994;15.498;2023-04-28T08:35:23;8.46;;;7.56;;
1987;SDS011;12775;46.994;15.498;2023-04-28T08:37:51;7.42;;;6.22;;
1987;SDS011;12775;46.994;15.498;2023-04-28T08:40:17;8.06;;;6.62;;
1987;SDS011;12775;46.994;15.498;2023-04-28T08:42:44;8.40;;;6.76;;
1987;SDS011;12775;46.994;15.498;2023-04-28T08:45:12;9.28;;;6.60;;
1987;SDS011;12775;46.994;15.498;2023-04-28T08:47:40;7.42;;;6.82;;
1987;SDS011;12775;46.994;15.498;2023-04-28T08:50:07;8.48;;;6.78;;
1987;SDS011;12775;46.994;15.498;2023-04-28T08:52:35;7.38;;;6.76;;
1987;SDS011;12775;46.994;15.498;2023-04-28T08:55:05;8.22;;;7.42;;
1987;SDS011;12775;46.994;15.498;2023-04-28T08:57:34;8.24;;;7.54;;
1987;SDS011;12775;46.994;15.498;2023-04-28T08:59:59;10.52;;;6.84;;
1987;SDS011;12775;46.994;15.498;2023-04-28T09:02:26;8.22;;;7.42;;
1987;SDS011;12775;46.994;15.498;2023-04-28T09:04:53;8.24;;;7.12;;
1987;SDS011;12775;46.994;15.498;2023-04-28T09:07:20;7.56;;;6.68;;
1987;SDS011;12775;46.994;15.498;2023-04-28T09:09:48;10.18;;;8.52;;
1987;SDS011;12775;46.994;15.498;2023-04-28T09:12:15;7.56;;;6.82;;
1987;SDS011;12775;46.994;15.498;2023-04-28T09:14:42;8.56;;;7.60;;
1987;SDS011;12775;46.994;15.498;2023-04-28T09:17:10;7.66;;;6.84;;
1987;SDS011;12775;46.994;15.498;2023-04-28T09:19:38;8.18;;;7.44;;
1987;SDS011;12775;46.994;15.498;2023-04-28T09:22:05;8.32;;;6.80;;
1987;SDS011;12775;46.994;15.498;2023-04-28T09:24:32;7.86;;;6.94;;
1987;SDS011;12775;46.994;15.498;2023-04-28T09:26:59;9.94;;;6.56;;
1987;SDS011;12775;46.994;15.498;2023-04-28T09:29:25;6.98;;;6.28;;
1987;SDS011;12775;46.994;15.498;2023-04-28T09:31:52;8.46;;;7.60;;
1987;SDS011;12775;46.994;15.498;2023-04-28T09:34:19;8.14;;;7.34;;
1987;SDS011;12775;46.994;15.498;2023-04-28T09:36:47;8.04;;;7.42;;
1987;SDS011;12775;46.994;15.498;2023-04-28T09:39:17;9.34;;;7.82;;
1987;SDS011;12775;46.994;15.498;2023-04-28T09:41:42;10.02;;;8.30;;
1987;SDS011;12775;46.994;15.498;2023-04-28T09:44:10;8.06;;;7.26;;
1987;SDS011;12775;46.994;15.498;2023-04-28T09:46:42;9.00;;;8.10;;
1987;SDS011;12775;46.994;15.498;2023-04-28T09:49:09;9.76;;;7.74;;
1987;SDS011;12775;46.994;15.498;2023-04-28T09:51:36;12.58;;;7.38;;
1987;SDS011;12775;46.994;15.498;2023-04-28T09:54:03;8.74;;;7.82;;
1987;SDS011;12775;46.994;15.498;2023-04-28T09:56:30;9.20;;;7.32;;
1987;SDS011;12775;46.994;15.498;2023-04-28T09:58:57;9.14;;;8.22;;
1987;SDS011;12775;46.994;15.498;2023-04-28T10:01:27;8.70;;;7.90;;
1987;SDS011;12775;46.994;15.498;2023-04-28T10:03:53;10.34;;;7.94;;
1987;SDS011;12775;46.994;15.498;2023-04-28T10:06:21;8.70;;;7.78;;
1987;SDS011;12775;46.994;15.498;2023-04-28T10:08:49;8.54;;;7.74;;
1987;SDS011;12775;46.994;15.498;2023-04-28T10:11:15;7.62;;;6.92;;
1987;SDS011;12775;46.994;15.498;2023-04-28T10:13:42;9.74;;;7.04;;
1987;SDS011;12775;46.994;15.498;2023-04-28T10:16:10;9.62;;;7.82;;
1987;SDS011;12775;46.994;15.498;2023-04-28T10:18:36;9.60;;;7.60;;
1987;SDS011;12775;46.994;15.498;2023-04-28T10:21:04;9.84;;;7.40;;
1987;SDS011;12775;46.994;15.498;2023-04-28T10:23:53;10.26;;;7.60;;
1987;SDS011;12775;46.994;15.498;2023-04-28T10:26:52;8.26;;;7.20;;
1987;SDS011;12775;46.994;15.498;2023-04-28T10:29:08;7.76;;;7.04;;
1987;SDS011;12775;46.994;15.498;2023-04-28T10:31:35;9.72;;;8.28;;
1987;SDS011;12775;46.994;15.498;2023-04-28T10:34:20;7.84;;;7.10;;
1987;SDS011;12775;46.994;15.498;2023-04-28T10:36:49;7.94;;;7.34;;
1987;SDS011;12775;46.994;15.498;2023-04-28T10:39:16;8.50;;;7.60;;
1987;SDS011;12775;46.994;15.498;2023-04-28T10:41:44;10.00;;;8.28;;
1987;SDS011;12775;46.994;15.498;2023-04-28T10:47:00;7.66;;;6.94;;
1987;SDS011;12775;46.994;15.498;2023-04-28T10:57:37;7.14;;;5.60;;
1987;SDS011;12775;46.994;15.498;2023-04-28T11:00:25;8.20;;;7.40;;
1987;SDS011;12775;46.994;15.498;2023-04-28T11:02:39;7.28;;;6.68;;
1987;SDS011;12775;46.994;15.498;2023-04-28T11:05:09;8.06;;;7.36;;
1987;SDS011;12775;46.994;15.498;2023-04-28T11:07:36;10.02;;;8.30;;
1987;SDS011;12775;46.994;15.498;2023-04-28T11:10:03;10.56;;;7.44;;
1987;SDS011;12775;46.994;15.498;2023-04-28T11:12:31;8.42;;;7.66;;
1987;SDS011;12775;46.994;15.498;2023-04-28T11:15:08;8.34;;;7.68;;
1987;SDS011;12775;46.994;15.498;2023-04-28T11:17:38;9.42;;;8.18;;
1987;SDS011;12775;46.994;15.498;2023-04-28T11:20:05;11.32;;;9.04;;
1987;SDS011;12775;46.994;15.498;2023-04-28T11:22:33;10.04;;;9.08;;
1987;SDS011;12775;46.994;15.498;2023-04-28T11:25:00;8.12;;;7.40;;
1987;SDS011;12775;46.994;15.498;2023-04-28T11:27:27;8.46;;;7.66;;
1987;SDS011;12775;46.994;15.498;2023-04-28T11:29:54;9.52;;;8.26;;
1987;SDS011;12775;46.994;15.498;2023-04-28T11:32:26;11.50;;;8.80;;
1987;SDS011;12775;46.994;15.498;2023-04-28T11:34:53;10.86;;;8.08;;
1987;SDS011;12775;46.994;15.498;2023-04-28T11:37:20;8.60;;;7.92;;
1987;SDS011;12775;46.994;15.498;2023-04-28T11:39:48;7.58;;;6.88;;
1987;SDS011;12775;46.994;15.498;2023-04-28T11:42:15;9.40;;;8.38;;
1987;SDS011;12775;46.994;15.498;2023-04-28T11:44:48;8.20;;;7.40;;
1987;SDS011;12775;46.994;15.498;2023-04-28T11:47:09;13.10;;;8.28;;
1987;SDS011;12775;46.994;15.498;2023-04-28T11:49:41;11.14;;;7.94;;
1987;SDS011;12775;46.994;15.498;2023-04-28T11:52:08;8.72;;;7.92;;
1987;SDS011;12775;46.994;15.498;2023-04-28T11:54:35;13.24;;;7.40;;
1987;SDS011;12775;46.994;15.498;2023-04-28T11:57:02;14.30;;;7.56;;
1987;SDS011;12775;46.994;15.498;2023-04-28T11:59:31;10.26;;;8.96;;
1987;SDS011;12775;46.994;15.498;2023-04-28T12:01:58;9.70;;;8.64;;
1987;SDS011;12775;46.994;15.498;2023-04-28T12:04:29;8.48;;;7.60;;
1987;SDS011;12775;46.994;15.498;2023-04-28T12:06:59;8.18;;;7.20;;
1987;SDS011;12775;46.994;15.498;2023-04-28T12:09:25;9.04;;;8.14;;
1987;SDS011;12775;46.994;15.498;2023-04-28T12:11:54;7.40;;;6.68;;
1987;SDS011;12775;46.994;15.498;2023-04-28T12:14:20;8.56;;;7.76;;
1987;SDS011;12775;46.994;15.498;2023-04-28T12:16:48;8.14;;;7.38;;
1987;SDS011;12775;46.994;15.498;2023-04-28T12:19:15;8.86;;;7.24;;
1987;SDS011;12775;46.994;15.498;2023-04-28T12:21:42;8.86;;;8.04;;
1987;SDS011;12775;46.994;15.498;2023-04-28T12:24:13;8.76;;;7.96;;
1987;SDS011;12775;46.994;15.498;2023-04-28T12:26:42;8.76;;;7.38;;
1987;SDS011;12775;46.994;15.498;2023-04-28T12:29:33;9.50;;;8.22;;
1987;SDS011;12775;46.994;15.498;2023-04-28T12:31:52;8.48;;;7.42;;
1987;SDS011;12775;46.994;15.498;2023-04-28T12:34:19;10.04;;;8.92;;
1987;SDS011;12775;46.994;15.498;2023-04-28T12:36:46;7.54;;;6.84;;
1987;SDS011;12775;46.994;15.498;2023-04-28T12:39:13;7.86;;;7.08;;
1987;SDS011;12775;46.994;15.498;2023-04-28T12:41:39;9.78;;;7.72;;
1987;SDS011;12775;46.994;15.498;2023-04-28T12:44:06;9.64;;;7.74;;
1987;SDS011;12775;46.994;15.498;2023-04-28T12:46:33;9.74;;;8.24;;
1987;SDS011;12775;46.994;15.498;2023-04-28T12:48:59;8.52;;;7.58;;
1987;SDS011;12775;46.994;15.498;2023-04-28T12:51:26;8.62;;;7.72;;
1987;SDS011;12775;46.994;15.498;2023-04-28T12:53:54;9.54;;;7.98;;
1987;SDS011;12775;46.994;15.498;2023-04-28T12:56:20;11.52;;;6.84;;
1987;SDS011;12775;46.994;15.498;2023-04-28T12:58:48;7.88;;;7.28;;
1987;SDS011;12775;46.994;15.498;2023-04-28T13:01:16;8.68;;;7.60;;
1987;SDS011;12775;46.994;15.498;2023-04-28T13:03:43;8.12;;;7.36;;
1987;SDS011;12775;46.994;15.498;2023-04-28T13:06:11;8.82;;;7.92;;
1987;SDS011;12775;46.994;15.498;2023-04-28T13:08:38;9.78;;;6.90;;
1987;SDS011;12775;46.994;15.498;2023-04-28T13:11:05;8.82;;;7.32;;
1987;SDS011;12775;46.994;15.498;2023-04-28T13:13:33;8.96;;;8.14;;
1987;SDS011;12775;46.994;15.498;2023-04-28T13:16:00;7.20;;;6.46;;
1987;SDS011;12775;46.994;15.498;2023-04-28T13:18:29;8.24;;;7.54;;
1987;SDS011;12775;46.994;15.498;2023-04-28T13:20:56;16.12;;;8.98;;
1987;SDS011;12775;46.994;15.498;2023-04-28T13:23:23;8.68;;;7.82;;
1987;SDS011;12775;46.994;15.498;2023-04-28T13:25:51;10.00;;;8.56;;
1987;SDS011;12775;46.994;15.498;2023-04-28T13:28:18;10.88;;;7.88;;
1987;SDS011;12775;46.994;15.498;2023-04-28T13:30:45;12.80;;;7.94;;
1987;SDS011;12775;46.994;15.498;2023-04-28T13:33:13;8.16;;;6.54;;
1987;SDS011;12775;46.994;15.498;2023-04-28T13:35:41;8.44;;;7.66;;
1987;SDS011;12775;46.994;15.498;2023-04-28T13:38:08;10.32;;;8.32;;
1987;SDS011;12775;46.994;15.498;2023-04-28T13:40:36;8.56;;;7.86;;
1987;SDS011;12775;46.994;15.498;2023-04-28T13:43:03;11.52;;;9.54;;
1987;SDS011;12775;46.994;15.498;2023-04-28T13:45:31;9.62;;;8.12;;
1987;SDS011;12775;46.994;15.498;2023-04-28T13:47:59;9.68;;;8.66;;
1987;SDS011;12775;46.994;15.498;2023-04-28T13:50:26;9.36;;;8.50;;
1987;SDS011;12775;46.994;15.498;2023-04-28T13:52:53;9.88;;;8.62;;
1987;SDS011;12775;46.994;15.498;2023-04-28T13:55:20;9.68;;;8.68;;
1987;SDS011;12775;46.994;15.498;2023-04-28T13:57:48;12.80;;;7.52;;
1987;SDS011;12775;46.994;15.498;2023-04-28T14:00:17;8.62;;;7.38;;
1987;SDS011;12775;46.994;15.498;2023-04-28T14:02:44;10.40;;;9.50;;
1987;SDS011;12775;46.994;15.498;2023-04-28T14:05:12;9.32;;;8.52;;
1987;SDS011;12775;46.994;15.498;2023-04-28T14:07:39;10.52;;;8.92;;
1987;SDS011;12775;46.994;15.498;2023-04-28T14:10:08;10.18;;;9.22;;
1987;SDS011;12775;46.994;15.498;2023-04-28T14:12:37;10.12;;;9.16;;
1987;SDS011;12775;46.994;15.498;2023-04-28T14:15:06;10.54;;;9.14;;
1987;SDS011;12775;46.994;15.498;2023-04-28T14:17:34;10.78;;;9.68;;
1987;SDS011;12775;46.994;15.498;2023-04-28T14:20:02;10.48;;;9.20;;
1987;SDS011;12775;46.994;15.498;2023-04-28T14:22:29;14.18;;;9.28;;
1987;SDS011;12775;46.994;15.498;2023-04-28T14:24:55;10.42;;;9.38;;
1987;SDS011;12775;46.994;15.498;2023-04-28T14:27:22;10.46;;;8.70;;
1987;SDS011;12775;46.994;15.498;2023-04-28T14:29:49;11.24;;;9.96;;
1987;SDS011;12775;46.994;15.498;2023-04-28T14:32:15;11.20;;;9.84;;
1987;SDS011;12775;46.994;15.498;2023-04-28T14:34:42;10.36;;;9.36;;
1987;SDS011;12775;46.994;15.498;2023-04-28T14:37:09;11.14;;;7.28;;
1987;SDS011;12775;46.994;15.498;2023-04-28T14:39:36;11.74;;;8.90;;
1987;SDS011;12775;46.994;15.498;2023-04-28T14:42:03;10.48;;;8.76;;
1987;SDS011;12775;46.994;15.498;2023-04-28T14:44:29;8.78;;;7.98;;
1987;SDS011;12775;46.994;15.498;2023-04-28T14:46:56;9.54;;;8.40;;
1987;SDS011;12775;46.994;15.498;2023-04-28T14:49:22;11.72;;;9.36;;
1987;SDS011;12775;46.994;15.498;2023-04-28T14:51:49;9.58;;;8.68;;
1987;SDS011;12775;46.994;15.498;2023-04-28T14:54:16;13.46;;;8.78;;
1987;SDS011;12775;46.994;15.498;2023-04-28T14:56:44;13.26;;;10.02;;